createdAt,value
2019-05-14T00:00:05.071Z,992.96
2019-05-14T00:01:04.974Z,992.93
2019-05-14T00:02:05.424Z,992.88
2019-05-14T00:03:04.470Z,992.96
2019-05-14T00:04:05.183Z,993.10
2019-05-14T00:05:05.366Z,992.93
2019-05-14T00:06:04.958Z,992.88
2019-05-14T00:07:05.032Z,992.99
2019-05-14T00:08:04.618Z,992.80
2019-05-14T00:09:05.292Z,993.07
2019-05-14T00:10:04.813Z,992.99
2019-05-14T00:11:05.063Z,992.85
2019-05-14T00:12:05.149Z,992.88
2019-05-14T00:13:04.556Z,992.96
2019-05-14T00:14:05.296Z,992.90
2019-05-14T00:15:05.425Z,992.85
2019-05-14T00:16:05.599Z,992.88
2019-05-14T00:17:04.686Z,992.77
2019-05-14T00:18:04.877Z,992.80
2019-05-14T00:19:05.196Z,992.83
2019-05-14T00:20:13.090Z,992.86
2019-05-14T00:21:04.863Z,992.88
2019-05-14T00:22:04.876Z,992.96
2019-05-14T00:23:05.163Z,992.77
2019-05-14T00:24:04.658Z,992.77
2019-05-14T00:25:05.284Z,992.83
2019-05-14T00:26:04.614Z,992.86
2019-05-14T00:27:05.023Z,992.77
2019-05-14T00:28:05.059Z,992.80
2019-05-14T00:29:05.335Z,992.72
2019-05-14T00:30:04.824Z,992.77
2019-05-14T00:31:05.506Z,992.80
2019-05-14T00:32:04.527Z,992.74
2019-05-14T00:33:04.929Z,992.80
2019-05-14T00:34:05.430Z,992.83
2019-05-14T00:35:04.942Z,992.72
2019-05-14T00:36:04.870Z,992.83
2019-05-14T00:37:05.132Z,992.86
2019-05-14T00:38:05.341Z,992.90
2019-05-14T00:39:05.462Z,992.77
2019-05-14T00:40:04.742Z,992.77
2019-05-14T00:41:04.724Z,992.77
2019-05-14T00:42:05.339Z,992.75
2019-05-14T00:43:04.552Z,992.78
2019-05-14T00:44:10.042Z,992.83
2019-05-14T00:45:04.978Z,992.83
2019-05-14T00:46:05.224Z,992.80
2019-05-14T00:47:04.555Z,992.75
2019-05-14T00:48:04.997Z,992.69
2019-05-14T00:49:04.520Z,992.78
2019-05-14T00:50:04.601Z,992.78
2019-05-14T00:51:04.844Z,992.72
2019-05-14T00:52:05.301Z,992.78
2019-05-14T00:53:04.789Z,992.89
2019-05-14T00:54:04.790Z,992.83
2019-05-14T00:55:05.058Z,992.78
2019-05-14T00:56:05.184Z,992.64
2019-05-14T00:57:04.776Z,992.75
2019-05-14T00:58:04.400Z,992.69
2019-05-14T00:59:05.095Z,992.67
2019-05-14T01:00:04.548Z,992.81
2019-05-14T01:01:04.844Z,992.72
2019-05-14T01:02:05.149Z,992.72
2019-05-14T01:03:04.695Z,992.89
2019-05-14T01:04:05.055Z,992.81
2019-05-14T01:05:05.159Z,992.81
2019-05-14T01:06:05.387Z,992.59
2019-05-14T01:07:05.215Z,992.75
2019-05-14T01:08:04.691Z,992.78
2019-05-14T01:09:04.837Z,992.75
2019-05-14T01:10:05.232Z,992.67
2019-05-14T01:11:04.764Z,992.91
2019-05-14T01:12:04.865Z,992.70
2019-05-14T01:13:05.075Z,992.76
2019-05-14T01:14:05.116Z,992.53
2019-05-14T01:15:14.154Z,992.56
2019-05-14T01:16:04.739Z,992.62
2019-05-14T01:17:04.835Z,992.64
2019-05-14T01:18:05.292Z,992.70
2019-05-14T01:19:05.492Z,992.64
2019-05-14T01:20:05.497Z,992.79
2019-05-14T01:21:04.643Z,992.76
2019-05-14T01:22:09.652Z,992.73
2019-05-14T01:23:04.586Z,992.73
2019-05-14T01:24:05.084Z,992.73
2019-05-14T01:25:05.289Z,992.70
2019-05-14T01:26:04.906Z,992.62
2019-05-14T01:27:04.895Z,992.67
2019-05-14T01:28:04.463Z,992.79
2019-05-14T01:29:05.101Z,992.62
2019-05-14T01:30:05.432Z,992.62
2019-05-14T01:31:04.558Z,992.84
2019-05-14T01:32:04.762Z,992.73
2019-05-14T01:33:04.780Z,992.70
2019-05-14T01:34:05.009Z,992.89
2019-05-14T01:35:04.753Z,992.70
2019-05-14T01:36:04.799Z,992.62
2019-05-14T01:37:04.698Z,992.67
2019-05-14T01:38:04.751Z,992.73
2019-05-14T01:39:04.841Z,992.84
2019-05-14T01:40:04.837Z,992.87
2019-05-14T01:42:05.861Z,992.82
2019-05-14T01:42:24.975Z,992.70
2019-05-14T01:43:05.087Z,992.56
2019-05-14T01:44:04.651Z,992.71
2019-05-14T01:45:06.533Z,992.68
2019-05-14T01:46:04.933Z,992.65
2019-05-14T01:47:05.064Z,992.65
2019-05-14T01:48:04.762Z,992.85
2019-05-14T01:49:04.506Z,992.71
2019-05-14T01:50:05.078Z,992.79
2019-05-14T01:51:05.126Z,992.60
2019-05-14T01:52:04.695Z,992.76
2019-05-14T01:53:04.730Z,992.71
2019-05-14T01:54:04.819Z,992.68
2019-05-14T01:55:05.225Z,992.60
2019-05-14T01:56:05.079Z,992.74
2019-05-14T01:57:05.237Z,992.77
2019-05-14T01:58:05.369Z,992.77
2019-05-14T01:59:05.476Z,992.77
2019-05-14T02:00:05.355Z,992.71
2019-05-14T02:01:04.486Z,992.80
2019-05-14T02:02:04.609Z,992.71
2019-05-14T02:03:05.751Z,992.54
2019-05-14T02:04:06.444Z,992.80
2019-05-14T02:05:04.465Z,992.77
2019-05-14T02:06:04.736Z,992.77
2019-05-14T02:07:04.682Z,992.71
2019-05-14T02:08:05.371Z,992.71
2019-05-14T02:09:04.746Z,992.65
2019-05-14T02:10:05.446Z,992.68
2019-05-14T02:11:04.765Z,992.68
2019-05-14T02:12:04.733Z,992.65
2019-05-14T02:13:04.576Z,992.68
2019-05-14T02:14:05.016Z,992.82
2019-05-14T02:15:04.490Z,992.57
2019-05-14T02:16:04.847Z,992.68
2019-05-14T02:17:05.068Z,992.65
2019-05-14T02:18:05.070Z,992.71
2019-05-14T02:19:05.109Z,992.51
2019-05-14T02:20:04.624Z,992.82
2019-05-14T02:21:05.106Z,992.62
2019-05-14T02:22:05.297Z,992.51
2019-05-14T02:23:05.375Z,992.68
2019-05-14T02:24:04.782Z,992.71
2019-05-14T02:25:04.770Z,992.65
2019-05-14T02:26:04.877Z,992.59
2019-05-14T02:27:04.967Z,992.62
2019-05-14T02:28:05.084Z,992.68
2019-05-14T02:29:04.581Z,992.62
2019-05-14T02:30:04.650Z,992.51
2019-05-14T02:31:04.912Z,992.48
2019-05-14T02:32:04.959Z,992.59
2019-05-14T02:33:05.080Z,992.48
2019-05-14T02:34:05.191Z,992.67
2019-05-14T02:35:05.275Z,992.56
2019-05-14T02:36:05.175Z,992.51
2019-05-14T02:37:04.490Z,992.62
2019-05-14T02:38:05.234Z,992.51
2019-05-14T02:39:05.340Z,992.59
2019-05-14T02:40:04.535Z,992.59
2019-05-14T02:41:04.850Z,992.56
2019-05-14T02:42:05.008Z,992.59
2019-05-14T02:43:04.579Z,992.59
2019-05-14T02:44:04.574Z,992.59
2019-05-14T02:45:04.755Z,992.53
2019-05-14T02:46:16.856Z,992.50
2019-05-14T02:47:05.104Z,992.42
2019-05-14T02:48:05.328Z,992.53
2019-05-14T02:49:04.587Z,992.50
2019-05-14T02:50:04.527Z,992.45
2019-05-14T02:51:05.290Z,992.39
2019-05-14T02:52:05.441Z,992.56
2019-05-14T02:53:05.366Z,992.50
2019-05-14T02:54:04.629Z,992.33
2019-05-14T02:55:05.027Z,992.47
2019-05-14T02:56:05.463Z,992.45
2019-05-14T02:57:04.563Z,992.45
2019-05-14T02:58:04.538Z,992.45
2019-05-14T02:59:09.587Z,992.39
2019-05-14T03:00:05.406Z,992.47
2019-05-14T03:01:05.552Z,992.53
2019-05-14T03:02:05.485Z,992.56
2019-05-14T03:03:05.171Z,992.45
2019-05-14T03:04:10.270Z,992.56
2019-05-14T03:05:04.829Z,992.62
2019-05-14T03:06:04.865Z,992.47
2019-05-14T03:07:05.422Z,992.56
2019-05-14T03:08:04.974Z,992.59
2019-05-14T03:09:04.886Z,992.59
2019-05-14T03:10:04.709Z,992.67
2019-05-14T03:11:05.228Z,992.39
2019-05-14T03:12:05.481Z,992.61
2019-05-14T03:13:05.428Z,992.45
2019-05-14T03:14:04.590Z,992.39
2019-05-14T03:15:04.717Z,992.53
2019-05-14T03:16:30.717Z,992.50
2019-05-14T03:17:04.883Z,992.53
2019-05-14T03:18:04.502Z,992.53
2019-05-14T03:19:04.737Z,992.44
2019-05-14T03:20:04.675Z,992.47
2019-05-14T03:21:05.039Z,992.47
2019-05-14T03:22:05.322Z,992.28
2019-05-14T03:23:17.719Z,992.59
2019-05-14T03:24:05.088Z,992.56
2019-05-14T03:25:05.137Z,992.42
2019-05-14T03:26:05.354Z,992.50
2019-05-14T03:27:05.136Z,992.53
2019-05-14T03:28:05.332Z,992.47
2019-05-14T03:29:04.896Z,992.53
2019-05-14T03:30:04.834Z,992.53
2019-05-14T03:31:05.205Z,992.59
2019-05-14T03:32:04.976Z,992.61
2019-05-14T03:33:05.253Z,992.61
2019-05-14T03:34:04.767Z,992.67
2019-05-14T03:35:05.362Z,992.70
2019-05-14T03:36:17.107Z,992.59
2019-05-14T03:37:05.465Z,992.67
2019-05-14T03:38:04.741Z,992.56
2019-05-14T03:39:04.923Z,992.59
2019-05-14T03:40:05.210Z,992.59
2019-05-14T03:41:14.018Z,992.64
2019-05-14T03:42:05.438Z,992.53
2019-05-14T03:43:04.497Z,992.50
2019-05-14T03:44:10.386Z,992.62
2019-05-14T03:45:04.724Z,992.59
2019-05-14T03:46:04.704Z,992.67
2019-05-14T03:47:09.922Z,992.59
2019-05-14T03:48:05.295Z,992.59
2019-05-14T03:49:05.515Z,992.50
2019-05-14T03:50:05.108Z,992.62
2019-05-14T03:51:05.171Z,992.59
2019-05-14T03:52:04.695Z,992.64
2019-05-14T03:53:05.069Z,992.56
2019-05-14T03:54:12.541Z,992.67
2019-05-14T03:55:05.320Z,992.62
2019-05-14T03:56:05.362Z,992.53
2019-05-14T03:57:05.249Z,992.67
2019-05-14T03:58:04.803Z,992.73
2019-05-14T03:59:05.123Z,992.53
2019-05-14T04:00:04.737Z,992.59
2019-05-14T04:01:04.802Z,992.67
2019-05-14T04:02:04.514Z,992.53
2019-05-14T04:03:04.889Z,992.53
2019-05-14T04:04:04.672Z,992.62
2019-05-14T04:05:04.965Z,992.59
2019-05-14T04:06:05.322Z,992.64
2019-05-14T04:07:05.128Z,992.64
2019-05-14T04:08:05.109Z,992.62
2019-05-14T04:09:05.310Z,992.64
2019-05-14T04:10:05.165Z,992.59
2019-05-14T04:11:04.551Z,992.64
2019-05-14T04:12:04.664Z,992.58
2019-05-14T04:13:04.826Z,992.58
2019-05-14T04:14:04.959Z,992.60
2019-05-14T04:15:05.434Z,992.63
2019-05-14T04:16:04.970Z,992.65
2019-05-14T04:17:15.292Z,992.65
2019-05-14T04:18:04.949Z,992.62
2019-05-14T04:19:05.090Z,992.59
2019-05-14T04:20:04.891Z,992.53
2019-05-14T04:21:04.669Z,992.67
2019-05-14T04:22:04.794Z,992.67
2019-05-14T04:23:05.058Z,992.63
2019-05-14T04:24:04.797Z,992.72
2019-05-14T04:25:05.623Z,992.57
2019-05-14T04:26:05.379Z,992.63
2019-05-14T04:27:13.107Z,992.68
2019-05-14T04:28:05.386Z,992.59
2019-05-14T04:29:05.491Z,992.79
2019-05-14T04:30:04.682Z,992.76
2019-05-14T04:31:04.676Z,992.73
2019-05-14T04:32:05.072Z,992.67
2019-05-14T04:33:05.032Z,992.69
2019-05-14T04:34:04.548Z,992.66
2019-05-14T04:35:04.594Z,992.75
2019-05-14T04:36:04.920Z,992.77
2019-05-14T04:37:04.995Z,992.68
2019-05-14T04:38:05.298Z,992.74
2019-05-14T04:39:05.341Z,992.85
2019-05-14T04:40:04.894Z,992.90
2019-05-14T04:41:05.051Z,992.73
2019-05-14T04:42:05.354Z,992.79
2019-05-14T04:43:04.628Z,992.76
2019-05-14T04:44:04.829Z,992.87
2019-05-14T04:45:06.304Z,992.81
2019-05-14T04:46:05.127Z,992.81
2019-05-14T04:47:31.658Z,992.66
2019-05-14T04:48:36.052Z,992.86
2019-05-14T04:49:05.113Z,992.86
2019-05-14T04:50:04.641Z,992.80
2019-05-14T04:51:05.005Z,992.77
2019-05-14T04:52:05.098Z,992.90
2019-05-14T04:53:05.339Z,992.96
2019-05-14T04:54:04.539Z,992.98
2019-05-14T04:55:04.667Z,992.88
2019-05-14T04:56:04.702Z,993.04
2019-05-14T04:57:04.997Z,992.92
2019-05-14T04:58:05.420Z,992.92
2019-05-14T04:59:04.653Z,992.84
2019-05-14T05:00:04.466Z,992.97
2019-05-14T05:01:04.758Z,992.87
2019-05-14T05:02:04.906Z,992.75
2019-05-14T05:03:12.557Z,992.83
2019-05-14T05:04:10.064Z,992.94
2019-05-14T05:05:08.665Z,992.89
2019-05-14T05:06:04.959Z,993.05
2019-05-14T05:07:05.135Z,992.83
2019-05-14T05:08:05.250Z,992.96
2019-05-14T05:09:04.480Z,992.96
2019-05-14T05:10:05.562Z,992.90
2019-05-14T05:11:05.093Z,992.96
2019-05-14T05:12:05.387Z,992.85
2019-05-14T05:13:05.094Z,993.07
2019-05-14T05:14:05.308Z,992.88
2019-05-14T05:15:04.882Z,992.95
2019-05-14T05:16:05.409Z,992.92
2019-05-14T05:17:04.614Z,992.88
2019-05-14T05:18:04.727Z,992.95
2019-05-14T05:19:05.002Z,992.87
2019-05-14T05:20:04.978Z,993.04
2019-05-14T05:21:04.998Z,992.92
2019-05-14T05:22:04.751Z,992.95
2019-05-14T05:23:04.650Z,992.92
2019-05-14T05:24:05.665Z,992.97
2019-05-14T05:25:05.003Z,992.89
2019-05-14T05:26:05.246Z,993.00
2019-05-14T05:27:05.090Z,993.06
2019-05-14T05:28:04.634Z,992.94
2019-05-14T05:29:10.433Z,992.89
2019-05-14T05:30:05.107Z,992.97
2019-05-14T05:31:08.917Z,993.11
2019-05-14T05:32:05.310Z,992.89
2019-05-14T05:33:04.632Z,992.94
2019-05-14T05:34:05.162Z,992.89
2019-05-14T05:35:05.146Z,992.93
2019-05-14T05:36:05.383Z,992.90
2019-05-14T05:37:05.396Z,992.96
2019-05-14T05:38:04.509Z,993.08
2019-05-14T05:39:04.665Z,992.90
2019-05-14T05:40:04.883Z,992.99
2019-05-14T05:41:04.882Z,992.96
2019-05-14T05:42:05.031Z,992.93
2019-05-14T05:43:04.538Z,992.98
2019-05-14T05:44:04.922Z,992.93
2019-05-14T05:45:05.223Z,992.95
2019-05-14T05:46:05.235Z,993.07
2019-05-14T05:47:04.848Z,993.13
2019-05-14T05:48:05.075Z,993.15
2019-05-14T05:49:04.983Z,992.98
2019-05-14T05:50:05.030Z,992.92
2019-05-14T05:51:05.469Z,992.92
2019-05-14T05:52:05.060Z,992.89
2019-05-14T05:53:04.480Z,992.92
2019-05-14T05:54:04.820Z,992.89
2019-05-14T05:55:04.891Z,992.98
2019-05-14T05:56:04.988Z,992.89
2019-05-14T05:57:05.136Z,992.89
2019-05-14T05:58:05.224Z,992.89
2019-05-14T05:59:04.563Z,992.84
2019-05-14T06:00:05.367Z,992.92
2019-05-14T06:01:04.612Z,992.88
2019-05-14T06:02:04.635Z,993.04
2019-05-14T06:03:04.914Z,992.79
2019-05-14T06:04:05.038Z,992.92
2019-05-14T06:05:05.021Z,992.82
2019-05-14T06:06:04.634Z,992.82
2019-05-14T06:07:05.067Z,992.98
2019-05-14T06:08:05.181Z,992.82
2019-05-14T06:09:05.143Z,992.88
2019-05-14T06:10:05.149Z,992.90
2019-05-14T06:11:04.569Z,992.88
2019-05-14T06:12:05.359Z,992.98
2019-05-14T06:13:04.936Z,992.90
2019-05-14T06:14:05.159Z,992.71
2019-05-14T06:15:04.898Z,992.96
2019-05-14T06:16:05.013Z,992.89
2019-05-14T06:17:05.339Z,992.86
2019-05-14T06:18:21.534Z,992.89
2019-05-14T06:19:05.315Z,992.75
2019-05-14T06:20:05.122Z,992.86
2019-05-14T06:21:05.315Z,992.84
2019-05-14T06:22:04.694Z,992.81
2019-05-14T06:23:05.003Z,992.75
2019-05-14T06:24:05.248Z,992.70
2019-05-14T06:25:04.935Z,992.76
2019-05-14T06:26:05.540Z,992.84
2019-05-14T06:27:04.630Z,992.67
2019-05-14T06:28:04.773Z,992.68
2019-05-14T06:29:04.630Z,992.68
2019-05-14T06:30:04.585Z,992.65
2019-05-14T06:31:04.854Z,992.71
2019-05-14T06:32:05.158Z,992.68
2019-05-14T06:33:04.505Z,992.68
2019-05-14T06:34:05.169Z,992.54
2019-05-14T06:35:05.384Z,992.74
2019-05-14T06:36:04.824Z,992.51
2019-05-14T06:37:04.933Z,992.62
2019-05-14T06:38:05.445Z,992.62
2019-05-14T06:39:05.428Z,992.68
2019-05-14T06:40:04.880Z,992.60
2019-05-14T06:41:04.654Z,992.48
2019-05-14T06:42:04.819Z,992.54
2019-05-14T06:43:04.947Z,992.72
2019-05-14T06:44:05.129Z,992.54
2019-05-14T06:45:05.172Z,992.63
2019-05-14T06:46:10.051Z,992.43
2019-05-14T06:47:04.454Z,992.60
2019-05-14T06:48:04.966Z,992.61
2019-05-14T06:49:04.876Z,992.58
2019-05-14T06:50:04.999Z,992.58
2019-05-14T06:51:05.268Z,992.49
2019-05-14T06:52:04.833Z,992.61
2019-05-14T06:53:04.867Z,992.58
2019-05-14T06:54:05.056Z,992.67
2019-05-14T06:55:05.362Z,992.67
2019-05-14T06:56:05.013Z,992.64
2019-05-14T06:57:04.660Z,992.64
2019-05-14T06:58:04.825Z,992.59
2019-05-14T06:59:05.150Z,992.62
2019-05-14T07:00:04.971Z,992.56
2019-05-14T07:01:05.265Z,992.53
2019-05-14T07:02:05.251Z,992.59
2019-05-14T07:03:05.251Z,992.73
2019-05-14T07:04:05.016Z,992.59
2019-05-14T07:05:04.694Z,992.59
2019-05-14T07:06:10.254Z,992.62
2019-05-14T07:07:04.716Z,992.56
2019-05-14T07:08:04.899Z,992.51
2019-05-14T07:09:05.398Z,992.57
2019-05-14T07:10:05.159Z,992.68
2019-05-14T07:11:05.147Z,992.60
2019-05-14T07:12:05.103Z,992.62
2019-05-14T07:13:05.193Z,992.51
2019-05-14T07:14:11.529Z,992.60
2019-05-14T07:15:05.403Z,992.60
2019-05-14T07:16:05.360Z,992.60
2019-05-14T07:17:05.495Z,992.51
2019-05-14T07:18:04.598Z,992.68
2019-05-14T07:19:04.793Z,992.54
2019-05-14T07:20:04.617Z,992.51
2019-05-14T07:21:04.778Z,992.51
2019-05-14T07:22:04.990Z,992.48
2019-05-14T07:23:05.326Z,992.63
2019-05-14T07:24:04.942Z,992.54
2019-05-14T07:25:05.294Z,992.46
2019-05-14T07:26:04.766Z,992.43
2019-05-14T07:27:04.930Z,992.34
2019-05-14T07:28:05.184Z,992.43
2019-05-14T07:29:05.163Z,992.48
2019-05-14T07:30:04.975Z,992.45
2019-05-14T07:31:04.885Z,992.48
2019-05-14T07:32:05.041Z,992.54
2019-05-14T07:33:04.961Z,992.40
2019-05-14T07:34:05.044Z,992.48
2019-05-14T07:35:05.164Z,992.40
2019-05-14T07:36:05.025Z,992.34
2019-05-14T07:37:05.457Z,992.37
2019-05-14T07:38:05.212Z,992.39
2019-05-14T07:39:04.534Z,992.48
2019-05-14T07:40:05.326Z,992.39
2019-05-14T07:41:05.038Z,992.39
2019-05-14T07:42:05.193Z,992.39
2019-05-14T07:43:04.822Z,992.42
2019-05-14T07:44:09.878Z,992.31
2019-05-14T07:45:05.404Z,992.36
2019-05-14T07:46:04.575Z,992.36
2019-05-14T07:47:04.679Z,992.28
2019-05-14T07:48:05.071Z,992.39
2019-05-14T07:49:11.852Z,992.33
2019-05-14T07:50:04.596Z,992.45
2019-05-14T07:51:04.627Z,992.42
2019-05-14T07:52:05.053Z,992.36
2019-05-14T07:53:05.165Z,992.36
2019-05-14T07:54:05.172Z,992.30
2019-05-14T07:55:04.830Z,992.28
2019-05-14T07:56:05.236Z,992.33
2019-05-14T07:57:05.426Z,992.33
2019-05-14T07:58:05.360Z,992.22
2019-05-14T07:59:04.949Z,992.36
2019-05-14T08:00:04.885Z,992.25
2019-05-14T08:01:05.151Z,992.27
2019-05-14T08:02:05.184Z,992.30
2019-05-14T08:03:04.954Z,992.30
2019-05-14T08:04:12.146Z,992.30
2019-05-14T08:05:04.804Z,992.30
2019-05-14T08:06:04.880Z,992.18
2019-05-14T08:07:05.049Z,992.27
2019-05-14T08:08:05.283Z,992.30
2019-05-14T08:09:04.714Z,992.30
2019-05-14T08:10:05.498Z,992.30
2019-05-14T08:11:04.528Z,992.38
2019-05-14T08:12:04.574Z,992.30
2019-05-14T08:13:04.755Z,992.16
2019-05-14T08:14:05.196Z,992.18
2019-05-14T08:15:21.617Z,992.33
2019-05-14T08:16:04.684Z,992.36
2019-05-14T08:17:05.080Z,992.39
2019-05-14T08:18:04.550Z,992.30
2019-05-14T08:19:24.041Z,992.36
2019-05-14T08:20:05.446Z,992.24
2019-05-14T08:21:04.554Z,992.33
2019-05-14T08:22:05.425Z,992.25
2019-05-14T08:23:04.734Z,992.10
2019-05-14T08:24:04.807Z,992.13
2019-05-14T08:25:05.023Z,992.11
2019-05-14T08:26:05.271Z,992.11
2019-05-14T08:27:05.330Z,992.14
2019-05-14T08:28:04.566Z,992.14
2019-05-14T08:29:04.694Z,992.05
2019-05-14T08:30:04.472Z,991.99
2019-05-14T08:31:04.725Z,992.19
2019-05-14T08:32:05.374Z,992.05
2019-05-14T08:33:04.907Z,991.96
2019-05-14T08:34:09.018Z,992.13
2019-05-14T08:35:04.605Z,991.96
2019-05-14T08:36:04.764Z,992.10
2019-05-14T08:37:08.070Z,992.01
2019-05-14T08:38:12.289Z,991.95
2019-05-14T08:39:04.998Z,992.10
2019-05-14T08:40:04.888Z,992.24
2019-05-14T08:41:04.616Z,992.01
2019-05-14T08:42:05.154Z,992.12
2019-05-14T08:43:05.402Z,992.15
2019-05-14T08:44:09.686Z,992.03
2019-05-14T08:45:10.229Z,992.03
2019-05-14T08:46:04.572Z,991.89
2019-05-14T08:47:04.860Z,992.06
2019-05-14T08:48:04.483Z,992.00
2019-05-14T08:49:05.136Z,992.12
2019-05-14T08:50:05.261Z,992.03
2019-05-14T08:51:05.172Z,992.14
2019-05-14T08:52:05.277Z,991.99
2019-05-14T08:53:05.347Z,992.08
2019-05-14T08:54:07.698Z,992.25
2019-05-14T08:55:13.844Z,991.90
2019-05-14T08:56:04.893Z,992.02
2019-05-14T08:57:04.974Z,991.93
2019-05-14T08:58:06.529Z,992.08
2019-05-14T08:59:04.706Z,991.88
2019-05-14T09:00:04.726Z,991.88
2019-05-14T09:01:04.925Z,991.97
2019-05-14T09:02:10.398Z,991.97
2019-05-14T09:03:05.143Z,992.05
2019-05-14T09:04:10.521Z,992.03
2019-05-14T09:05:09.327Z,991.94
2019-05-14T09:06:04.851Z,992.03
2019-05-14T09:07:05.082Z,991.85
2019-05-14T09:08:05.165Z,992.14
2019-05-14T09:09:05.307Z,991.85
2019-05-14T09:10:05.493Z,991.96
2019-05-14T09:11:05.242Z,991.93
2019-05-14T09:12:05.394Z,991.79
2019-05-14T09:13:04.547Z,991.93
2019-05-14T09:14:04.805Z,991.82
2019-05-14T09:15:04.719Z,991.99
2019-05-14T09:16:04.991Z,991.84
2019-05-14T09:17:05.195Z,991.87
2019-05-14T09:18:05.552Z,991.98
2019-05-14T09:19:04.600Z,991.75
2019-05-14T09:20:10.943Z,991.86
2019-05-14T09:21:04.922Z,991.83
2019-05-14T09:22:05.286Z,991.80
2019-05-14T09:23:05.384Z,991.78
2019-05-14T09:24:04.672Z,991.89
2019-05-14T09:25:05.537Z,991.75
2019-05-14T09:26:05.423Z,992.01
2019-05-14T09:27:08.224Z,992.01
2019-05-14T09:28:05.003Z,991.72
2019-05-14T09:29:25.444Z,991.84
2019-05-14T09:30:05.416Z,991.75
2019-05-14T09:31:04.732Z,991.75
2019-05-14T09:32:04.515Z,991.67
2019-05-14T09:33:04.740Z,991.75
2019-05-14T09:34:04.590Z,991.75
2019-05-14T09:35:05.178Z,991.72
2019-05-14T09:36:20.323Z,991.64
2019-05-14T09:37:04.568Z,991.61
2019-05-14T09:38:04.559Z,991.70
2019-05-14T09:39:04.963Z,991.72
2019-05-14T09:40:05.318Z,991.70
2019-05-14T09:41:15.373Z,991.72
2019-05-14T09:42:05.132Z,991.67
2019-05-14T09:43:05.188Z,991.67
2019-05-14T09:44:05.229Z,991.55
2019-05-14T09:45:05.340Z,991.67
2019-05-14T09:46:05.398Z,991.70
2019-05-14T09:47:05.485Z,991.47
2019-05-14T09:48:04.577Z,991.61
2019-05-14T09:49:05.056Z,991.78
2019-05-14T09:50:20.062Z,991.55
2019-05-14T09:51:04.549Z,991.58
2019-05-14T09:52:05.315Z,991.61
2019-05-14T09:53:05.160Z,991.58
2019-05-14T09:54:05.440Z,991.58
2019-05-14T09:55:04.467Z,991.75
2019-05-14T09:56:04.661Z,991.78
2019-05-14T09:57:05.089Z,991.61
2019-05-14T09:58:04.881Z,991.47
2019-05-14T09:59:04.979Z,991.61
2019-05-14T10:00:05.294Z,991.50
2019-05-14T10:01:05.378Z,991.45
2019-05-14T10:02:05.472Z,991.50
2019-05-14T10:03:05.537Z,991.47
2019-05-14T10:04:04.498Z,991.59
2019-05-14T10:05:05.111Z,991.48
2019-05-14T10:06:05.357Z,991.59
2019-05-14T10:07:04.600Z,991.68
2019-05-14T10:08:04.667Z,991.48
2019-05-14T10:09:05.159Z,991.48
2019-05-14T10:10:05.044Z,991.66
2019-05-14T10:11:05.309Z,991.57
2019-05-14T10:12:05.076Z,991.51
2019-05-14T10:13:05.118Z,991.49
2019-05-14T10:14:04.737Z,991.47
2019-05-14T10:15:05.475Z,991.49
2019-05-14T10:16:04.766Z,991.52
2019-05-14T10:17:05.504Z,991.44
2019-05-14T10:18:05.466Z,991.52
2019-05-14T10:19:05.499Z,991.44
2019-05-14T10:20:04.514Z,991.61
2019-05-14T10:21:04.915Z,991.47
2019-05-14T10:22:04.681Z,991.47
2019-05-14T10:23:04.710Z,991.42
2019-05-14T10:24:05.187Z,991.47
2019-05-14T10:25:05.249Z,991.39
2019-05-14T10:26:05.352Z,991.36
2019-05-14T10:27:05.248Z,991.35
2019-05-14T10:28:05.147Z,991.32
2019-05-14T10:29:04.616Z,991.41
2019-05-14T10:30:04.567Z,991.32
2019-05-14T10:31:05.425Z,991.38
2019-05-14T10:32:04.709Z,991.29
2019-05-14T10:33:14.683Z,991.48
2019-05-14T10:34:04.866Z,991.44
2019-05-14T10:35:05.692Z,991.44
2019-05-14T10:36:05.094Z,991.35
2019-05-14T10:37:05.083Z,991.30
2019-05-14T10:38:04.739Z,991.36
2019-05-14T10:39:04.894Z,991.41
2019-05-14T10:40:05.330Z,991.44
2019-05-14T10:41:04.421Z,991.24
2019-05-14T10:42:04.782Z,991.30
2019-05-14T10:43:04.919Z,991.39
2019-05-14T10:44:04.968Z,991.25
2019-05-14T10:45:13.267Z,991.28
2019-05-14T10:46:04.920Z,991.31
2019-05-14T10:47:05.135Z,991.34
2019-05-14T10:48:05.304Z,991.25
2019-05-14T10:49:23.370Z,991.25
2019-05-14T10:50:04.650Z,991.34
2019-05-14T10:51:04.606Z,991.28
2019-05-14T10:52:04.692Z,991.22
2019-05-14T10:53:04.776Z,991.19
2019-05-14T10:54:25.124Z,991.22
2019-05-14T10:55:04.478Z,991.16
2019-05-14T10:56:05.002Z,991.33
2019-05-14T10:57:05.474Z,991.22
2019-05-14T10:58:04.589Z,991.22
2019-05-14T10:59:05.328Z,991.36
2019-05-14T11:00:08.615Z,991.47
2019-05-14T11:01:04.731Z,991.30
2019-05-14T11:02:05.168Z,991.36
2019-05-14T11:03:05.066Z,991.55
2019-05-14T11:04:04.523Z,991.50
2019-05-14T11:05:05.022Z,991.25
2019-05-14T11:06:04.692Z,991.25
2019-05-14T11:07:04.768Z,991.34
2019-05-14T11:08:05.408Z,991.26
2019-05-14T11:09:04.783Z,991.20
2019-05-14T11:10:05.153Z,991.32
2019-05-14T11:11:05.224Z,991.06
2019-05-14T11:12:04.909Z,991.09
2019-05-14T11:13:05.253Z,991.17
2019-05-14T11:14:04.673Z,991.18
2019-05-14T11:15:04.645Z,991.20
2019-05-14T11:16:04.761Z,991.12
2019-05-14T11:17:04.875Z,991.12
2019-05-14T11:18:04.610Z,991.17
2019-05-14T11:19:10.056Z,991.00
2019-05-14T11:20:05.502Z,991.17
2019-05-14T11:21:26.281Z,991.11
2019-05-14T11:22:05.205Z,991.20
2019-05-14T11:23:04.923Z,991.08
2019-05-14T11:24:04.987Z,991.05
2019-05-14T11:25:05.352Z,991.11
2019-05-14T11:26:05.265Z,991.08
2019-05-14T11:27:05.131Z,990.88
2019-05-14T11:28:05.213Z,990.94
2019-05-14T11:29:05.398Z,991.11
2019-05-14T11:30:04.663Z,991.00
2019-05-14T11:31:04.924Z,990.97
2019-05-14T11:32:05.005Z,991.05
2019-05-14T11:33:05.101Z,991.00
2019-05-14T11:34:05.061Z,991.00
2019-05-14T11:35:04.865Z,990.97
2019-05-14T11:36:06.073Z,991.20
2019-05-14T11:37:05.455Z,991.03
2019-05-14T11:38:33.110Z,990.97
2019-05-14T11:39:08.661Z,990.91
2019-05-14T11:40:05.346Z,991.00
2019-05-14T11:41:04.564Z,991.00
2019-05-14T11:42:04.850Z,991.00
2019-05-14T11:43:05.112Z,991.03
2019-05-14T11:44:05.150Z,991.09
2019-05-14T11:45:05.261Z,991.03
2019-05-14T11:46:04.571Z,990.95
2019-05-14T11:47:04.535Z,990.86
2019-05-14T11:48:05.068Z,990.97
2019-05-14T11:49:04.677Z,990.89
2019-05-14T11:50:04.879Z,990.83
2019-05-14T11:51:05.029Z,990.74
2019-05-14T11:52:11.941Z,990.77
2019-05-14T11:53:04.569Z,990.80
2019-05-14T11:54:05.437Z,990.63
2019-05-14T11:55:05.304Z,990.66
2019-05-14T11:56:04.657Z,990.74
2019-05-14T11:57:04.611Z,990.71
2019-05-14T11:58:04.650Z,990.80
2019-05-14T11:59:04.965Z,990.54
2019-05-14T12:00:05.271Z,990.62
2019-05-14T12:01:05.383Z,990.71
2019-05-14T12:02:05.140Z,990.77
2019-05-14T12:03:04.959Z,990.62
2019-05-14T12:04:10.289Z,990.59
2019-05-14T12:05:04.676Z,990.53
2019-05-14T12:06:04.813Z,990.43
2019-05-14T12:07:04.849Z,990.47
2019-05-14T12:08:04.860Z,990.42
2019-05-14T12:09:04.910Z,990.47
2019-05-14T12:10:05.145Z,990.36
2019-05-14T12:11:05.245Z,990.36
2019-05-14T12:12:04.770Z,990.55
2019-05-14T12:13:05.437Z,990.31
2019-05-14T12:14:04.456Z,990.53
2019-05-14T12:15:04.668Z,990.42
2019-05-14T12:16:04.895Z,990.76
2019-05-14T12:17:04.556Z,990.50
2019-05-14T12:18:05.139Z,990.56
2019-05-14T12:19:05.391Z,990.62
2019-05-14T12:20:04.530Z,990.43
2019-05-14T12:21:05.032Z,990.37
2019-05-14T12:22:12.021Z,990.62
2019-05-14T12:23:04.961Z,990.59
2019-05-14T12:24:08.215Z,990.40
2019-05-14T12:25:05.331Z,990.48
2019-05-14T12:26:05.212Z,990.51
2019-05-14T12:27:05.308Z,990.23
2019-05-14T12:28:04.598Z,990.38